sensor_id;sensor_type;location;lat;lon;timestamp;temperature;humidity
22878;DHT22;11606;45.404;12.148;2022-08-02T05:23:44;24.50;98.90
22878;DHT22;11606;45.404;12.148;2022-08-02T05:26:10;24.40;99.20
22878;DHT22;11606;45.404;12.148;2022-08-02T05:28:35;24.40;99.60
22878;DHT22;11606;45.404;12.148;2022-08-02T05:31:01;24.40;99.90
22878;DHT22;11606;45.404;12.148;2022-08-02T05:33:27;24.30;99.90
22878;DHT22;11606;45.404;12.148;2022-08-02T05:35:56;24.30;99.90
22878;DHT22;11606;45.404;12.148;2022-08-02T05:38:23;24.20;99.90
22878;DHT22;11606;45.404;12.148;2022-08-02T05:40:50;24.20;99.90
22878;DHT22;11606;45.404;12.148;2022-08-02T05:43:16;24.20;99.90
22878;DHT22;11606;45.404;12.148;2022-08-02T05:45:42;24.10;99.90
22878;DHT22;11606;45.404;12.148;2022-08-02T05:48:10;24.10;99.90
22878;DHT22;11606;45.404;12.148;2022-08-02T05:50:44;24.10;99.90
22878;DHT22;11606;45.404;12.148;2022-08-02T05:53:58;24.00;99.90
22878;DHT22;11606;45.404;12.148;2022-08-02T05:56:33;24.00;99.90
22878;DHT22;11606;45.404;12.148;2022-08-02T05:59:08;23.90;99.90
22878;DHT22;11606;45.404;12.148;2022-08-02T06:01:41;23.90;99.90
22878;DHT22;11606;45.404;12.148;2022-08-02T06:04:10;23.80;99.90
22878;DHT22;11606;45.404;12.148;2022-08-02T06:06:43;23.80;99.90
22878;DHT22;11606;45.404;12.148;2022-08-02T06:09:14;23.80;99.90
22878;DHT22;11606;45.404;12.148;2022-08-02T06:11:45;23.80;99.90
22878;DHT22;11606;45.404;12.148;2022-08-02T06:14:12;23.70;99.90
22878;DHT22;11606;45.404;12.148;2022-08-02T06:16:38;23.60;99.90
22878;DHT22;11606;45.404;12.148;2022-08-02T06:19:05;23.60;99.90
22878;DHT22;11606;45.404;12.148;2022-08-02T06:21:32;23.50;99.90
22878;DHT22;11606;45.404;12.148;2022-08-02T06:24:02;23.40;99.90
22878;DHT22;11606;45.404;12.148;2022-08-02T06:26:29;23.30;99.90
22878;DHT22;11606;45.404;12.148;2022-08-02T06:28:57;23.20;99.90
22878;DHT22;11606;45.404;12.148;2022-08-02T06:31:23;23.10;99.90
22878;DHT22;11606;45.404;12.148;2022-08-02T06:33:49;23.00;99.90
22878;DHT22;11606;45.404;12.148;2022-08-02T06:36:21;22.90;99.90
22878;DHT22;11606;45.404;12.148;2022-08-02T06:38:56;22.80;99.90
22878;DHT22;11606;45.404;12.148;2022-08-02T06:41:27;22.70;99.90
22878;DHT22;11606;45.404;12.148;2022-08-02T06:44:03;22.60;99.90
22878;DHT22;11606;45.404;12.148;2022-08-02T06:46:32;22.50;99.90
22878;DHT22;11606;45.404;12.148;2022-08-02T06:48:59;22.40;99.90
22878;DHT22;11606;45.404;12.148;2022-08-02T06:51:26;22.40;99.90
22878;DHT22;11606;45.404;12.148;2022-08-02T06:53:53;22.40;99.90
22878;DHT22;11606;45.404;12.148;2022-08-02T06:56:19;22.40;99.90
22878;DHT22;11606;45.404;12.148;2022-08-02T06:58:45;22.40;99.90
22878;DHT22;11606;45.404;12.148;2022-08-02T07:01:13;22.50;99.90
22878;DHT22;11606;45.404;12.148;2022-08-02T07:03:39;22.50;99.90
22878;DHT22;11606;45.404;12.148;2022-08-02T07:06:07;22.60;99.90
22878;DHT22;11606;45.404;12.148;2022-08-02T07:08:34;22.60;99.90
22878;DHT22;11606;45.404;12.148;2022-08-02T07:11:09;22.60;99.90
22878;DHT22;11606;45.404;12.148;2022-08-02T07:13:40;22.70;99.90
22878;DHT22;11606;45.404;12.148;2022-08-02T07:16:09;22.70;99.90
22878;DHT22;11606;45.404;12.148;2022-08-02T07:18:38;22.80;99.90
22878;DHT22;11606;45.404;12.148;2022-08-02T07:21:08;22.80;99.90
22878;DHT22;11606;45.404;12.148;2022-08-02T07:23:34;22.80;99.90
22878;DHT22;11606;45.404;12.148;2022-08-02T07:26:00;22.80;99.90
22878;DHT22;11606;45.404;12.148;2022-08-02T07:28:26;22.90;99.90
22878;DHT22;11606;45.404;12.148;2022-08-02T07:30:52;22.90;99.90
22878;DHT22;11606;45.404;12.148;2022-08-02T07:33:19;23.00;99.90
22878;DHT22;11606;45.404;12.148;2022-08-02T07:35:47;23.00;99.90
22878;DHT22;11606;45.404;12.148;2022-08-02T07:38:18;23.00;99.90
22878;DHT22;11606;45.404;12.148;2022-08-02T07:40:51;23.00;99.90
22878;DHT22;11606;45.404;12.148;2022-08-02T07:43:17;23.10;99.90
22878;DHT22;11606;45.404;12.148;2022-08-02T07:45:43;23.10;99.90
22878;DHT22;11606;45.404;12.148;2022-08-02T07:48:09;23.20;99.90
22878;DHT22;11606;45.404;12.148;2022-08-02T07:50:39;23.20;99.90
22878;DHT22;11606;45.404;12.148;2022-08-02T07:53:05;23.40;99.90
22878;DHT22;11606;45.404;12.148;2022-08-02T07:55:31;23.40;99.90
22878;DHT22;11606;45.404;12.148;2022-08-02T07:57:57;23.50;99.90
22878;DHT22;11606;45.404;12.148;2022-08-02T08:00:24;23.50;99.90
22878;DHT22;11606;45.404;12.148;2022-08-02T08:02:50;23.50;99.90
22878;DHT22;11606;45.404;12.148;2022-08-02T08:05:17;23.50;99.90
22878;DHT22;11606;45.404;12.148;2022-08-02T08:07:45;23.60;99.90
22878;DHT22;11606;45.404;12.148;2022-08-02T08:10:11;23.70;99.90
22878;DHT22;11606;45.404;12.148;2022-08-02T08:12:37;23.80;99.90
22878;DHT22;11606;45.404;12.148;2022-08-02T08:15:06;23.80;99.90
22878;DHT22;11606;45.404;12.148;2022-08-02T08:17:32;23.90;99.90
22878;DHT22;11606;45.404;12.148;2022-08-02T08:20:03;24.00;99.90
22878;DHT22;11606;45.404;12.148;2022-08-02T08:22:31;24.10;99.90
22878;DHT22;11606;45.404;12.148;2022-08-02T08:24:57;24.30;99.90
22878;DHT22;11606;45.404;12.148;2022-08-02T08:27:23;24.40;99.90
22878;DHT22;11606;45.404;12.148;2022-08-02T08:29:50;24.50;99.90
22878;DHT22;11606;45.404;12.148;2022-08-02T08:32:17;24.60;99.90
22878;DHT22;11606;45.404;12.148;2022-08-02T08:34:44;24.70;99.90
22878;DHT22;11606;45.404;12.148;2022-08-02T08:37:10;24.80;99.90
22878;DHT22;11606;45.404;12.148;2022-08-02T08:39:36;24.80;99.90
22878;DHT22;11606;45.404;12.148;2022-08-02T08:42:07;24.90;99.90
22878;DHT22;11606;45.404;12.148;2022-08-02T08:44:37;25.00;99.90
22878;DHT22;11606;45.404;12.148;2022-08-02T08:47:04;25.10;99.90
22878;DHT22;11606;45.404;12.148;2022-08-02T08:49:39;25.20;99.90
22878;DHT22;11606;45.404;12.148;2022-08-02T08:52:05;25.40;99.90
22878;DHT22;11606;45.404;12.148;2022-08-02T08:54:34;25.60;99.90
22878;DHT22;11606;45.404;12.148;2022-08-02T08:57:04;25.70;99.90
22878;DHT22;11606;45.404;12.148;2022-08-02T08:59:30;25.90;99.90
22878;DHT22;11606;45.404;12.148;2022-08-02T09:01:57;26.00;99.90
22878;DHT22;11606;45.404;12.148;2022-08-02T09:04:23;26.20;99.90
22878;DHT22;11606;45.404;12.148;2022-08-02T09:06:49;26.40;99.90
22878;DHT22;11606;45.404;12.148;2022-08-02T09:09:15;26.50;99.90
22878;DHT22;11606;45.404;12.148;2022-08-02T09:11:41;26.70;99.90
22878;DHT22;11606;45.404;12.148;2022-08-02T09:14:07;27.20;99.90
22878;DHT22;11606;45.404;12.148;2022-08-02T09:16:37;27.60;99.90
22878;DHT22;11606;45.404;12.148;2022-08-02T09:19:22;28.00;99.90
22878;DHT22;11606;45.404;12.148;2022-08-02T09:21:51;28.30;99.90
22878;DHT22;11606;45.404;12.148;2022-08-02T09:24:21;28.70;99.90
22878;DHT22;11606;45.404;12.148;2022-08-02T09:26:49;29.00;99.90
22878;DHT22;11606;45.404;12.148;2022-08-02T09:29:17;29.30;99.90
22878;DHT22;11606;45.404;12.148;2022-08-02T09:31:44;29.60;99.90
22878;DHT22;11606;45.404;12.148;2022-08-02T09:34:10;29.80;99.90
22878;DHT22;11606;45.404;12.148;2022-08-02T09:36:42;30.20;99.90
22878;DHT22;11606;45.404;12.148;2022-08-02T09:39:10;30.60;99.90
22878;DHT22;11606;45.404;12.148;2022-08-02T09:41:39;30.90;99.90
22878;DHT22;11606;45.404;12.148;2022-08-02T09:44:10;31.20;99.90
22878;DHT22;11606;45.404;12.148;2022-08-02T09:46:54;31.50;99.90
22878;DHT22;11606;45.404;12.148;2022-08-02T09:49:20;31.80;99.90
22878;DHT22;11606;45.404;12.148;2022-08-02T09:51:50;32.00;99.90
22878;DHT22;11606;45.404;12.148;2022-08-02T09:54:24;32.30;99.10
22878;DHT22;11606;45.404;12.148;2022-08-02T09:59:20;32.70;98.40
22878;DHT22;11606;45.404;12.148;2022-08-02T10:01:47;32.70;97.70
22878;DHT22;11606;45.404;12.148;2022-08-02T10:04:14;33.00;97.60
22878;DHT22;11606;45.404;12.148;2022-08-02T10:06:42;33.30;95.70
22878;DHT22;11606;45.404;12.148;2022-08-02T10:09:11;33.20;94.40
22878;DHT22;11606;45.404;12.148;2022-08-02T10:11:38;33.30;94.90
22878;DHT22;11606;45.404;12.148;2022-08-02T10:14:06;33.50;95.80
22878;DHT22;11606;45.404;12.148;2022-08-02T10:16:34;33.80;94.90
22878;DHT22;11606;45.404;12.148;2022-08-02T10:19:00;34.10;93.90
22878;DHT22;11606;45.404;12.148;2022-08-02T10:21:45;34.30;92.60
22878;DHT22;11606;45.404;12.148;2022-08-02T10:26:42;34.30;91.30
22878;DHT22;11606;45.404;12.148;2022-08-02T10:29:10;33.90;90.90
22878;DHT22;11606;45.404;12.148;2022-08-02T10:31:44;33.30;90.90
22878;DHT22;11606;45.404;12.148;2022-08-02T10:34:15;32.80;91.20
22878;DHT22;11606;45.404;12.148;2022-08-02T10:36:43;32.30;91.60
22878;DHT22;11606;45.404;12.148;2022-08-02T10:39:10;32.00;92.10
22878;DHT22;11606;45.404;12.148;2022-08-02T10:44:31;32.50;91.80
22878;DHT22;11606;45.404;12.148;2022-08-02T10:49:55;33.60;91.30
22878;DHT22;11606;45.404;12.148;2022-08-02T10:52:31;34.10;91.10
22878;DHT22;11606;45.404;12.148;2022-08-02T10:55:11;34.60;90.10
22878;DHT22;11606;45.404;12.148;2022-08-02T10:57:38;34.80;90.00
22878;DHT22;11606;45.404;12.148;2022-08-02T11:02:49;35.00;87.60
22878;DHT22;11606;45.404;12.148;2022-08-02T11:05:28;34.80;85.80
22878;DHT22;11606;45.404;12.148;2022-08-02T11:07:54;34.70;87.90
22878;DHT22;11606;45.404;12.148;2022-08-02T11:10:38;34.70;86.50
22878;DHT22;11606;45.404;12.148;2022-08-02T11:13:15;34.70;86.70
22878;DHT22;11606;45.404;12.148;2022-08-02T11:18:16;34.60;84.20
22878;DHT22;11606;45.404;12.148;2022-08-02T11:20:43;34.30;85.70
22878;DHT22;11606;45.404;12.148;2022-08-02T11:23:35;34.20;86.20
22878;DHT22;11606;45.404;12.148;2022-08-02T11:28:54;34.10;86.40
22878;DHT22;11606;45.404;12.148;2022-08-02T11:31:20;34.10;85.00
22878;DHT22;11606;45.404;12.148;2022-08-02T11:33:48;34.20;85.70
22878;DHT22;11606;45.404;12.148;2022-08-02T11:36:15;34.20;85.70
22878;DHT22;11606;45.404;12.148;2022-08-02T11:38:40;34.20;84.20
22878;DHT22;11606;45.404;12.148;2022-08-02T11:41:06;34.20;83.40
22878;DHT22;11606;45.404;12.148;2022-08-02T11:43:33;34.20;80.40
22878;DHT22;11606;45.404;12.148;2022-08-02T11:46:03;34.10;79.20
22878;DHT22;11606;45.404;12.148;2022-08-02T11:48:37;34.00;79.30
22878;DHT22;11606;45.404;12.148;2022-08-02T11:51:11;33.90;81.00
22878;DHT22;11606;45.404;12.148;2022-08-02T11:53:55;33.80;81.50
22878;DHT22;11606;45.404;12.148;2022-08-02T11:56:28;33.60;80.80
22878;DHT22;11606;45.404;12.148;2022-08-02T11:59:08;33.60;80.60
22878;DHT22;11606;45.404;12.148;2022-08-02T12:01:36;33.50;79.20
22878;DHT22;11606;45.404;12.148;2022-08-02T12:04:03;33.50;80.70
22878;DHT22;11606;45.404;12.148;2022-08-02T12:06:29;33.40;78.30
22878;DHT22;11606;45.404;12.148;2022-08-02T12:09:05;33.50;79.10
22878;DHT22;11606;45.404;12.148;2022-08-02T12:11:32;33.50;76.60
22878;DHT22;11606;45.404;12.148;2022-08-02T12:13:58;33.40;78.50
22878;DHT22;11606;45.404;12.148;2022-08-02T12:16:31;33.40;78.50
22878;DHT22;11606;45.404;12.148;2022-08-02T12:19:15;33.50;78.20
22878;DHT22;11606;45.404;12.148;2022-08-02T12:21:45;33.60;78.50
22878;DHT22;11606;45.404;12.148;2022-08-02T12:24:11;33.60;78.80
22878;DHT22;11606;45.404;12.148;2022-08-02T12:26:45;33.60;77.20
22878;DHT22;11606;45.404;12.148;2022-08-02T12:29:12;33.50;77.80
22878;DHT22;11606;45.404;12.148;2022-08-02T12:31:42;33.50;78.30
22878;DHT22;11606;45.404;12.148;2022-08-02T12:34:17;33.60;77.10
22878;DHT22;11606;45.404;12.148;2022-08-02T12:37:06;33.50;76.30
22878;DHT22;11606;45.404;12.148;2022-08-02T12:39:38;33.50;77.20
22878;DHT22;11606;45.404;12.148;2022-08-02T12:42:06;33.40;76.30
22878;DHT22;11606;45.404;12.148;2022-08-02T12:44:33;33.40;76.00
22878;DHT22;11606;45.404;12.148;2022-08-02T12:47:07;33.40;76.50
22878;DHT22;11606;45.404;12.148;2022-08-02T12:49:36;33.40;76.80
22878;DHT22;11606;45.404;12.148;2022-08-02T12:52:18;33.30;75.90
22878;DHT22;11606;45.404;12.148;2022-08-02T12:54:44;33.30;77.50
22878;DHT22;11606;45.404;12.148;2022-08-02T12:57:16;33.30;75.90
22878;DHT22;11606;45.404;12.148;2022-08-02T12:59:48;33.30;77.50
22878;DHT22;11606;45.404;12.148;2022-08-02T13:02:14;33.40;75.80
22878;DHT22;11606;45.404;12.148;2022-08-02T13:04:41;33.40;74.40
22878;DHT22;11606;45.404;12.148;2022-08-02T13:07:07;33.20;73.20
22878;DHT22;11606;45.404;12.148;2022-08-02T13:09:39;33.10;73.70
22878;DHT22;11606;45.404;12.148;2022-08-02T13:12:06;32.90;73.10
22878;DHT22;11606;45.404;12.148;2022-08-02T13:14:33;32.80;73.20
22878;DHT22;11606;45.404;12.148;2022-08-02T13:17:00;32.80;74.70
22878;DHT22;11606;45.404;12.148;2022-08-02T13:19:26;32.90;74.80
22878;DHT22;11606;45.404;12.148;2022-08-02T13:21:52;33.00;74.40
22878;DHT22;11606;45.404;12.148;2022-08-02T13:24:19;33.00;74.50
22878;DHT22;11606;45.404;12.148;2022-08-02T13:26:45;33.00;75.30
22878;DHT22;11606;45.404;12.148;2022-08-02T13:29:11;33.10;75.70
22878;DHT22;11606;45.404;12.148;2022-08-02T13:31:38;33.10;75.00
22878;DHT22;11606;45.404;12.148;2022-08-02T13:34:05;33.10;75.00
22878;DHT22;11606;45.404;12.148;2022-08-02T13:36:32;33.10;73.90
22878;DHT22;11606;45.404;12.148;2022-08-02T13:38:58;33.10;74.10
22878;DHT22;11606;45.404;12.148;2022-08-02T13:41:24;33.10;73.00
22878;DHT22;11606;45.404;12.148;2022-08-02T13:43:50;33.10;74.40
22878;DHT22;11606;45.404;12.148;2022-08-02T13:46:16;33.10;75.20
22878;DHT22;11606;45.404;12.148;2022-08-02T13:48:42;33.10;74.50
22878;DHT22;11606;45.404;12.148;2022-08-02T13:51:08;33.10;74.70
22878;DHT22;11606;45.404;12.148;2022-08-02T13:53:39;33.10;74.70
22878;DHT22;11606;45.404;12.148;2022-08-02T13:56:06;33.00;74.70
22878;DHT22;11606;45.404;12.148;2022-08-02T13:58:32;33.00;73.70
22878;DHT22;11606;45.404;12.148;2022-08-02T14:00:58;33.10;74.20
22878;DHT22;11606;45.404;12.148;2022-08-02T14:03:24;33.10;73.00
22878;DHT22;11606;45.404;12.148;2022-08-02T14:05:50;33.10;73.20
22878;DHT22;11606;45.404;12.148;2022-08-02T14:08:17;33.10;72.00
22878;DHT22;11606;45.404;12.148;2022-08-02T14:10:45;33.10;73.10
22878;DHT22;11606;45.404;12.148;2022-08-02T14:13:11;33.10;73.60
22878;DHT22;11606;45.404;12.148;2022-08-02T14:15:36;33.10;73.00
22878;DHT22;11606;45.404;12.148;2022-08-02T14:18:02;33.10;72.80
22878;DHT22;11606;45.404;12.148;2022-08-02T14:20:28;33.10;72.40
22878;DHT22;11606;45.404;12.148;2022-08-02T14:22:54;33.20;72.00
22878;DHT22;11606;45.404;12.148;2022-08-02T14:25:20;33.20;72.80
22878;DHT22;11606;45.404;12.148;2022-08-02T14:27:45;33.20;72.40
22878;DHT22;11606;45.404;12.148;2022-08-02T14:30:11;33.20;72.40
22878;DHT22;11606;45.404;12.148;2022-08-02T14:32:37;33.10;72.10
22878;DHT22;11606;45.404;12.148;2022-08-02T14:35:03;33.10;72.50
22878;DHT22;11606;45.404;12.148;2022-08-02T14:37:29;33.10;72.40
22878;DHT22;11606;45.404;12.148;2022-08-02T14:39:56;33.00;71.10
22878;DHT22;11606;45.404;12.148;2022-08-02T14:42:21;33.00;72.40
22878;DHT22;11606;45.404;12.148;2022-08-02T14:44:47;33.00;73.40
22878;DHT22;11606;45.404;12.148;2022-08-02T14:47:13;33.00;73.40
22878;DHT22;11606;45.404;12.148;2022-08-02T14:49:39;32.90;74.80
22878;DHT22;11606;45.404;12.148;2022-08-02T14:52:06;32.70;76.10
22878;DHT22;11606;45.404;12.148;2022-08-02T14:54:32;32.80;73.10
22878;DHT22;11606;45.404;12.148;2022-08-02T14:56:59;32.80;76.30
22878;DHT22;11606;45.404;12.148;2022-08-02T14:59:26;32.80;77.10
22878;DHT22;11606;45.404;12.148;2022-08-02T15:01:52;32.60;77.90
22878;DHT22;11606;45.404;12.148;2022-08-02T15:04:18;32.60;78.40
22878;DHT22;11606;45.404;12.148;2022-08-02T15:06:44;32.60;78.60
22878;DHT22;11606;45.404;12.148;2022-08-02T15:09:10;32.50;78.50
22878;DHT22;11606;45.404;12.148;2022-08-02T15:11:38;32.40;78.50
22878;DHT22;11606;45.404;12.148;2022-08-02T15:14:03;32.30;78.90
22878;DHT22;11606;45.404;12.148;2022-08-02T15:16:29;32.30;79.00
22878;DHT22;11606;45.404;12.148;2022-08-02T15:19:01;32.40;76.90
22878;DHT22;11606;45.404;12.148;2022-08-02T15:21:27;32.40;76.40
22878;DHT22;11606;45.404;12.148;2022-08-02T15:23:53;32.40;75.80
22878;DHT22;11606;45.404;12.148;2022-08-02T15:26:18;32.30;75.90
22878;DHT22;11606;45.404;12.148;2022-08-02T15:28:48;32.30;75.90
22878;DHT22;11606;45.404;12.148;2022-08-02T15:31:14;32.40;75.00
22878;DHT22;11606;45.404;12.148;2022-08-02T15:33:40;32.40;75.60
22878;DHT22;11606;45.404;12.148;2022-08-02T15:36:06;32.50;76.10
22878;DHT22;11606;45.404;12.148;2022-08-02T15:38:33;32.50;75.60
22878;DHT22;11606;45.404;12.148;2022-08-02T15:40:59;32.50;75.10
22878;DHT22;11606;45.404;12.148;2022-08-02T15:43:25;32.60;75.60
22878;DHT22;11606;45.404;12.148;2022-08-02T15:45:51;32.60;75.90
22878;DHT22;11606;45.404;12.148;2022-08-02T15:48:17;32.60;75.90
22878;DHT22;11606;45.404;12.148;2022-08-02T15:50:43;32.60;75.60
22878;DHT22;11606;45.404;12.148;2022-08-02T15:53:09;32.60;75.10
22878;DHT22;11606;45.404;12.148;2022-08-02T15:55:35;32.70;74.50
22878;DHT22;11606;45.404;12.148;2022-08-02T15:58:01;32.60;74.60
22878;DHT22;11606;45.404;12.148;2022-08-02T16:00:27;32.50;75.50
22878;DHT22;11606;45.404;12.148;2022-08-02T16:02:55;32.50;74.70
22878;DHT22;11606;45.404;12.148;2022-08-02T16:05:21;32.40;74.90
22878;DHT22;11606;45.404;12.148;2022-08-02T16:07:47;32.50;75.50
22878;DHT22;11606;45.404;12.148;2022-08-02T16:10:14;32.40;74.40
22878;DHT22;11606;45.404;12.148;2022-08-02T16:12:40;32.30;75.10
22878;DHT22;11606;45.404;12.148;2022-08-02T16:15:07;32.30;75.20
22878;DHT22;11606;45.404;12.148;2022-08-02T16:17:33;32.20;76.30
22878;DHT22;11606;45.404;12.148;2022-08-02T16:19:59;32.20;75.60
22878;DHT22;11606;45.404;12.148;2022-08-02T16:22:25;32.20;76.20
22878;DHT22;11606;45.404;12.148;2022-08-02T16:24:51;32.30;75.80
22878;DHT22;11606;45.404;12.148;2022-08-02T16:27:17;32.20;75.60
22878;DHT22;11606;45.404;12.148;2022-08-02T16:29:43;32.20;75.60
22878;DHT22;11606;45.404;12.148;2022-08-02T16:32:09;32.10;76.00
22878;DHT22;11606;45.404;12.148;2022-08-02T16:34:36;32.00;75.80
22878;DHT22;11606;45.404;12.148;2022-08-02T16:37:02;32.00;76.50
22878;DHT22;11606;45.404;12.148;2022-08-02T16:39:28;32.00;75.80
22878;DHT22;11606;45.404;12.148;2022-08-02T16:41:54;31.90;75.60
22878;DHT22;11606;45.404;12.148;2022-08-02T16:44:20;31.80;75.90
22878;DHT22;11606;45.404;12.148;2022-08-02T16:46:46;31.80;75.80
22878;DHT22;11606;45.404;12.148;2022-08-02T16:49:12;31.80;75.60
22878;DHT22;11606;45.404;12.148;2022-08-02T16:51:39;31.70;75.80
22878;DHT22;11606;45.404;12.148;2022-08-02T16:54:05;31.60;76.00
22878;DHT22;11606;45.404;12.148;2022-08-02T16:56:31;31.60;76.00
22878;DHT22;11606;45.404;12.148;2022-08-02T16:58:57;31.70;75.80
22878;DHT22;11606;45.404;12.148;2022-08-02T17:01:23;31.60;76.20
22878;DHT22;11606;45.404;12.148;2022-08-02T17:03:48;31.60;76.20
22878;DHT22;11606;45.404;12.148;2022-08-02T17:06:14;31.60;75.90
22878;DHT22;11606;45.404;12.148;2022-08-02T17:08:40;31.50;75.70
22878;DHT22;11606;45.404;12.148;2022-08-02T17:11:06;31.50;76.40
22878;DHT22;11606;45.404;12.148;2022-08-02T17:13:32;31.50;75.70
22878;DHT22;11606;45.404;12.148;2022-08-02T17:15:58;31.40;76.30
22878;DHT22;11606;45.404;12.148;2022-08-02T17:18:23;31.40;76.60
22878;DHT22;11606;45.404;12.148;2022-08-02T17:20:49;31.40;76.40
22878;DHT22;11606;45.404;12.148;2022-08-02T17:23:15;31.40;76.50
22878;DHT22;11606;45.404;12.148;2022-08-02T17:25:42;31.30;76.90
22878;DHT22;11606;45.404;12.148;2022-08-02T17:28:08;31.30;77.50
22878;DHT22;11606;45.404;12.148;2022-08-02T17:30:34;31.30;77.70
22878;DHT22;11606;45.404;12.148;2022-08-02T17:33:00;31.30;77.90
22878;DHT22;11606;45.404;12.148;2022-08-02T17:35:26;31.30;78.50
22878;DHT22;11606;45.404;12.148;2022-08-02T17:37:52;31.20;78.30
22878;DHT22;11606;45.404;12.148;2022-08-02T17:40:18;31.10;78.30
22878;DHT22;11606;45.404;12.148;2022-08-02T17:42:44;31.10;78.80
22878;DHT22;11606;45.404;12.148;2022-08-02T17:45:10;31.00;79.00
22878;DHT22;11606;45.404;12.148;2022-08-02T17:47:37;30.90;79.10
22878;DHT22;11606;45.404;12.148;2022-08-02T17:50:03;30.90;79.70
22878;DHT22;11606;45.404;12.148;2022-08-02T17:52:29;30.80;80.20
22878;DHT22;11606;45.404;12.148;2022-08-02T17:54:55;30.70;80.00
22878;DHT22;11606;45.404;12.148;2022-08-02T17:57:21;30.70;80.40
22878;DHT22;11606;45.404;12.148;2022-08-02T17:59:57;30.50;80.90
22878;DHT22;11606;45.404;12.148;2022-08-02T18:02:23;30.50;82.10
22878;DHT22;11606;45.404;12.148;2022-08-02T18:04:51;30.40;80.80
22878;DHT22;11606;45.404;12.148;2022-08-02T18:07:17;30.40;81.70
22878;DHT22;11606;45.404;12.148;2022-08-02T18:09:43;30.30;81.80
22878;DHT22;11606;45.404;12.148;2022-08-02T18:12:09;30.20;82.20
22878;DHT22;11606;45.404;12.148;2022-08-02T18:14:35;30.10;82.80
22878;DHT22;11606;45.404;12.148;2022-08-02T18:17:01;30.10;83.20
22878;DHT22;11606;45.404;12.148;2022-08-02T18:19:29;30.00;83.20
22878;DHT22;11606;45.404;12.148;2022-08-02T18:21:55;29.90;83.30
22878;DHT22;11606;45.404;12.148;2022-08-02T18:24:21;29.80;83.90
22878;DHT22;11606;45.404;12.148;2022-08-02T18:26:48;29.70;83.90
22878;DHT22;11606;45.404;12.148;2022-08-02T18:29:14;29.70;83.80
22878;DHT22;11606;45.404;12.148;2022-08-02T18:31:40;29.70;84.30
22878;DHT22;11606;45.404;12.148;2022-08-02T18:34:06;29.70;84.40
22878;DHT22;11606;45.404;12.148;2022-08-02T18:36:32;29.70;84.80
22878;DHT22;11606;45.404;12.148;2022-08-02T18:38:59;29.70;86.10
22878;DHT22;11606;45.404;12.148;2022-08-02T18:41:27;29.60;85.90
22878;DHT22;11606;45.404;12.148;2022-08-02T18:43:53;29.50;86.80
22878;DHT22;11606;45.404;12.148;2022-08-02T18:46:19;29.50;87.30
22878;DHT22;11606;45.404;12.148;2022-08-02T18:48:45;29.40;87.80
22878;DHT22;11606;45.404;12.148;2022-08-02T18:51:11;29.30;88.40
22878;DHT22;11606;45.404;12.148;2022-08-02T18:53:37;29.20;88.80
22878;DHT22;11606;45.404;12.148;2022-08-02T18:56:04;29.20;89.60
22878;DHT22;11606;45.404;12.148;2022-08-02T18:58:30;29.10;90.10
22878;DHT22;11606;45.404;12.148;2022-08-02T19:00:57;29.00;90.60
22878;DHT22;11606;45.404;12.148;2022-08-02T19:03:23;28.90;91.10
22878;DHT22;11606;45.404;12.148;2022-08-02T19:05:49;28.80;91.30
22878;DHT22;11606;45.404;12.148;2022-08-02T19:08:15;28.70;91.50
22878;DHT22;11606;45.404;12.148;2022-08-02T19:10:42;28.60;92.10
22878;DHT22;11606;45.404;12.148;2022-08-02T19:13:10;28.60;92.50
22878;DHT22;11606;45.404;12.148;2022-08-02T19:15:37;28.60;92.80
22878;DHT22;11606;45.404;12.148;2022-08-02T19:18:04;28.50;92.80
22878;DHT22;11606;45.404;12.148;2022-08-02T19:20:31;28.50;93.10
22878;DHT22;11606;45.404;12.148;2022-08-02T19:22:57;28.40;93.30
22878;DHT22;11606;45.404;12.148;2022-08-02T19:25:24;28.40;93.60
22878;DHT22;11606;45.404;12.148;2022-08-02T19:27:50;28.30;93.90
22878;DHT22;11606;45.404;12.148;2022-08-02T19:30:17;28.30;94.00
22878;DHT22;11606;45.404;12.148;2022-08-02T19:32:44;28.10;94.20
22878;DHT22;11606;45.404;12.148;2022-08-02T19:35:11;28.10;94.50
22878;DHT22;11606;45.404;12.148;2022-08-02T19:37:38;28.00;94.60
22878;DHT22;11606;45.404;12.148;2022-08-02T19:40:10;28.00;95.00
22878;DHT22;11606;45.404;12.148;2022-08-02T19:42:41;27.90;95.10
22878;DHT22;11606;45.404;12.148;2022-08-02T19:45:09;27.80;95.30
22878;DHT22;11606;45.404;12.148;2022-08-02T19:47:39;27.80;95.50
22878;DHT22;11606;45.404;12.148;2022-08-02T19:50:06;27.70;95.70
22878;DHT22;11606;45.404;12.148;2022-08-02T19:52:33;27.60;95.90
22878;DHT22;11606;45.404;12.148;2022-08-02T19:54:59;27.50;96.10
22878;DHT22;11606;45.404;12.148;2022-08-02T19:57:25;27.30;96.30
22878;DHT22;11606;45.404;12.148;2022-08-02T19:59:51;27.30;96.50
22878;DHT22;11606;45.404;12.148;2022-08-02T20:02:17;27.20;96.70
22878;DHT22;11606;45.404;12.148;2022-08-02T20:04:43;27.20;96.80
22878;DHT22;11606;45.404;12.148;2022-08-02T20:07:09;27.20;97.00
22878;DHT22;11606;45.404;12.148;2022-08-02T20:09:35;27.10;96.90
22878;DHT22;11606;45.404;12.148;2022-08-02T20:12:01;27.00;97.20
22878;DHT22;11606;45.404;12.148;2022-08-02T20:14:28;27.00;97.40
22878;DHT22;11606;45.404;12.148;2022-08-02T20:16:55;27.10;97.50
22878;DHT22;11606;45.404;12.148;2022-08-02T20:19:21;27.10;97.70
22878;DHT22;11606;45.404;12.148;2022-08-02T20:21:47;27.10;97.50
22878;DHT22;11606;45.404;12.148;2022-08-02T20:24:13;27.10;97.60
22878;DHT22;11606;45.404;12.148;2022-08-02T20:26:39;27.10;97.90
22878;DHT22;11606;45.404;12.148;2022-08-02T20:29:06;27.00;98.00
22878;DHT22;11606;45.404;12.148;2022-08-02T20:31:36;27.00;98.30
22878;DHT22;11606;45.404;12.148;2022-08-02T20:34:02;26.90;98.20
22878;DHT22;11606;45.404;12.148;2022-08-02T20:36:28;27.00;98.50
22878;DHT22;11606;45.404;12.148;2022-08-02T20:38:54;26.90;98.50
22878;DHT22;11606;45.404;12.148;2022-08-02T20:41:21;26.90;98.50
22878;DHT22;11606;45.404;12.148;2022-08-02T20:43:48;26.80;98.80
22878;DHT22;11606;45.404;12.148;2022-08-02T20:46:14;26.60;98.80
22878;DHT22;11606;45.404;12.148;2022-08-02T20:48:40;26.50;99.00
22878;DHT22;11606;45.404;12.148;2022-08-02T20:51:06;26.40;99.30
22878;DHT22;11606;45.404;12.148;2022-08-02T20:53:32;26.40;99.50
22878;DHT22;11606;45.404;12.148;2022-08-02T20:55:58;26.40;99.70
22878;DHT22;11606;45.404;12.148;2022-08-02T20:58:24;26.40;99.70
22878;DHT22;11606;45.404;12.148;2022-08-02T21:00:50;26.40;99.70